sensor_id;sensor_type;location;lat;lon;timestamp;P1;durP1;ratioP1;P2;durP2;ratioP2
67508;SDS011;54354;44.724;11.284;2023-09-08T00:02:18;10.05;;;4.60;;
67508;SDS011;54354;44.724;11.284;2023-09-08T00:04:43;12.95;;;6.00;;
67508;SDS011;54354;44.724;11.284;2023-09-08T00:07:09;12.82;;;5.72;;
67508;SDS011;54354;44.724;11.284;2023-09-08T00:09:34;14.60;;;6.45;;
67508;SDS011;54354;44.724;11.284;2023-09-08T00:12:00;12.30;;;5.97;;
67508;SDS011;54354;44.724;11.284;2023-09-08T00:14:26;12.32;;;6.25;;
67508;SDS011;54354;44.724;11.284;2023-09-08T00:16:52;14.55;;;5.97;;
67508;SDS011;54354;44.724;11.284;2023-09-08T00:19:41;12.00;;;5.97;;
67508;SDS011;54354;44.724;11.284;2023-09-08T00:22:06;8.38;;;5.35;;
67508;SDS011;54354;44.724;11.284;2023-09-08T00:24:32;12.90;;;5.78;;
67508;SDS011;54354;44.724;11.284;2023-09-08T00:26:58;10.82;;;5.78;;
67508;SDS011;54354;44.724;11.284;2023-09-08T00:29:23;18.33;;;5.68;;
67508;SDS011;54354;44.724;11.284;2023-09-08T00:31:49;13.82;;;5.25;;
67508;SDS011;54354;44.724;11.284;2023-09-08T00:34:15;12.10;;;5.45;;
67508;SDS011;54354;44.724;11.284;2023-09-08T00:36:41;9.10;;;5.32;;
67508;SDS011;54354;44.724;11.284;2023-09-08T00:39:06;12.60;;;5.45;;
67508;SDS011;54354;44.724;11.284;2023-09-08T00:41:32;9.65;;;5.00;;
67508;SDS011;54354;44.724;11.284;2023-09-08T00:43:58;10.23;;;4.97;;
67508;SDS011;54354;44.724;11.284;2023-09-08T00:46:24;11.23;;;4.80;;
67508;SDS011;54354;44.724;11.284;2023-09-08T00:48:52;8.63;;;4.72;;
67508;SDS011;54354;44.724;11.284;2023-09-08T00:51:19;8.90;;;4.93;;
67508;SDS011;54354;44.724;11.284;2023-09-08T00:53:45;12.70;;;4.90;;
67508;SDS011;54354;44.724;11.284;2023-09-08T00:56:11;6.88;;;4.75;;
67508;SDS011;54354;44.724;11.284;2023-09-08T00:58:37;8.82;;;4.97;;
67508;SDS011;54354;44.724;11.284;2023-09-08T01:01:02;13.32;;;6.63;;
67508;SDS011;54354;44.724;11.284;2023-09-08T01:03:28;8.48;;;5.60;;
67508;SDS011;54354;44.724;11.284;2023-09-08T01:05:53;14.63;;;5.68;;
67508;SDS011;54354;44.724;11.284;2023-09-08T01:08:20;12.15;;;4.75;;
67508;SDS011;54354;44.724;11.284;2023-09-08T01:10:47;8.32;;;4.90;;
67508;SDS011;54354;44.724;11.284;2023-09-08T01:13:13;17.60;;;5.00;;
67508;SDS011;54354;44.724;11.284;2023-09-08T01:15:39;9.82;;;4.72;;
67508;SDS011;54354;44.724;11.284;2023-09-08T01:18:05;12.05;;;5.40;;
67508;SDS011;54354;44.724;11.284;2023-09-08T01:20:32;9.10;;;4.97;;
67508;SDS011;54354;44.724;11.284;2023-09-08T01:23:13;8.88;;;4.90;;
67508;SDS011;54354;44.724;11.284;2023-09-08T01:25:46;10.20;;;4.70;;
67508;SDS011;54354;44.724;11.284;2023-09-08T01:28:17;8.35;;;4.43;;
67508;SDS011;54354;44.724;11.284;2023-09-08T01:30:45;6.70;;;4.93;;
67508;SDS011;54354;44.724;11.284;2023-09-08T01:33:11;7.85;;;4.65;;
67508;SDS011;54354;44.724;11.284;2023-09-08T01:35:37;6.93;;;4.70;;
67508;SDS011;54354;44.724;11.284;2023-09-08T01:38:02;10.05;;;5.10;;
67508;SDS011;54354;44.724;11.284;2023-09-08T01:40:30;14.10;;;5.20;;
67508;SDS011;54354;44.724;11.284;2023-09-08T01:42:55;13.73;;;5.10;;
67508;SDS011;54354;44.724;11.284;2023-09-08T01:45:21;9.90;;;6.07;;
67508;SDS011;54354;44.724;11.284;2023-09-08T01:47:47;12.07;;;6.10;;
67508;SDS011;54354;44.724;11.284;2023-09-08T01:50:13;12.50;;;5.57;;
67508;SDS011;54354;44.724;11.284;2023-09-08T01:52:42;12.68;;;6.07;;
67508;SDS011;54354;44.724;11.284;2023-09-08T01:55:07;14.57;;;6.50;;
67508;SDS011;54354;44.724;11.284;2023-09-08T01:57:33;14.43;;;6.35;;
67508;SDS011;54354;44.724;11.284;2023-09-08T02:00:01;13.43;;;6.50;;
67508;SDS011;54354;44.724;11.284;2023-09-08T02:02:37;15.00;;;7.20;;
67508;SDS011;54354;44.724;11.284;2023-09-08T02:05:03;16.17;;;8.48;;
67508;SDS011;54354;44.724;11.284;2023-09-08T02:07:29;14.20;;;7.47;;
67508;SDS011;54354;44.724;11.284;2023-09-08T02:09:56;23.90;;;7.35;;
67508;SDS011;54354;44.724;11.284;2023-09-08T02:12:22;12.32;;;6.57;;
67508;SDS011;54354;44.724;11.284;2023-09-08T02:14:48;14.35;;;7.20;;
67508;SDS011;54354;44.724;11.284;2023-09-08T02:17:13;11.77;;;7.80;;
67508;SDS011;54354;44.724;11.284;2023-09-08T02:19:39;13.63;;;7.85;;
67508;SDS011;54354;44.724;11.284;2023-09-08T02:22:04;12.32;;;7.43;;
67508;SDS011;54354;44.724;11.284;2023-09-08T02:24:30;11.38;;;7.75;;
67508;SDS011;54354;44.724;11.284;2023-09-08T02:26:56;14.38;;;7.63;;
67508;SDS011;54354;44.724;11.284;2023-09-08T02:29:26;14.27;;;7.65;;
67508;SDS011;54354;44.724;11.284;2023-09-08T02:31:54;15.83;;;7.97;;
67508;SDS011;54354;44.724;11.284;2023-09-08T02:34:20;10.57;;;7.90;;
67508;SDS011;54354;44.724;11.284;2023-09-08T02:36:46;13.13;;;7.72;;
67508;SDS011;54354;44.724;11.284;2023-09-08T02:39:14;10.10;;;8.63;;
67508;SDS011;54354;44.724;11.284;2023-09-08T02:41:39;13.52;;;9.25;;
67508;SDS011;54354;44.724;11.284;2023-09-08T02:44:05;14.38;;;9.50;;
67508;SDS011;54354;44.724;11.284;2023-09-08T02:46:30;14.40;;;9.63;;
67508;SDS011;54354;44.724;11.284;2023-09-08T02:48:56;12.82;;;10.23;;
67508;SDS011;54354;44.724;11.284;2023-09-08T02:51:22;16.33;;;10.65;;
67508;SDS011;54354;44.724;11.284;2023-09-08T02:53:47;16.45;;;10.60;;
67508;SDS011;54354;44.724;11.284;2023-09-08T02:56:13;12.32;;;11.05;;
67508;SDS011;54354;44.724;11.284;2023-09-08T02:58:38;14.63;;;11.02;;
67508;SDS011;54354;44.724;11.284;2023-09-08T03:01:14;14.55;;;11.10;;
67508;SDS011;54354;44.724;11.284;2023-09-08T03:03:42;12.60;;;11.02;;
67508;SDS011;54354;44.724;11.284;2023-09-08T03:06:09;19.20;;;11.15;;
67508;SDS011;54354;44.724;11.284;2023-09-08T03:08:35;16.77;;;11.07;;
67508;SDS011;54354;44.724;11.284;2023-09-08T03:11:04;14.10;;;12.50;;
67508;SDS011;54354;44.724;11.284;2023-09-08T03:13:33;15.65;;;12.05;;
67508;SDS011;54354;44.724;11.284;2023-09-08T03:16:06;21.70;;;11.88;;
67508;SDS011;54354;44.724;11.284;2023-09-08T03:18:33;15.55;;;11.65;;
67508;SDS011;54354;44.724;11.284;2023-09-08T03:21:02;20.58;;;12.38;;
67508;SDS011;54354;44.724;11.284;2023-09-08T03:23:40;15.60;;;12.15;;
67508;SDS011;54354;44.724;11.284;2023-09-08T03:26:07;16.58;;;11.95;;
67508;SDS011;54354;44.724;11.284;2023-09-08T03:28:34;19.90;;;12.23;;
67508;SDS011;54354;44.724;11.284;2023-09-08T03:31:01;14.27;;;12.57;;
67508;SDS011;54354;44.724;11.284;2023-09-08T03:33:29;17.58;;;12.85;;
67508;SDS011;54354;44.724;11.284;2023-09-08T03:35:55;13.95;;;12.30;;
67508;SDS011;54354;44.724;11.284;2023-09-08T03:38:21;17.52;;;12.00;;
67508;SDS011;54354;44.724;11.284;2023-09-08T03:40:47;16.17;;;12.80;;
67508;SDS011;54354;44.724;11.284;2023-09-08T03:43:13;15.40;;;12.73;;
67508;SDS011;54354;44.724;11.284;2023-09-08T03:45:39;18.63;;;12.45;;
67508;SDS011;54354;44.724;11.284;2023-09-08T03:48:05;17.08;;;12.52;;
67508;SDS011;54354;44.724;11.284;2023-09-08T03:50:31;20.33;;;13.82;;
67508;SDS011;54354;44.724;11.284;2023-09-08T03:52:56;17.08;;;13.80;;
67508;SDS011;54354;44.724;11.284;2023-09-08T03:55:22;14.13;;;12.57;;
67508;SDS011;54354;44.724;11.284;2023-09-08T03:57:48;15.25;;;13.35;;
67508;SDS011;54354;44.724;11.284;2023-09-08T04:00:13;23.60;;;14.13;;
67508;SDS011;54354;44.724;11.284;2023-09-08T04:02:45;19.52;;;12.70;;
67508;SDS011;54354;44.724;11.284;2023-09-08T04:05:11;17.05;;;13.50;;
67508;SDS011;54354;44.724;11.284;2023-09-08T04:07:37;16.98;;;12.80;;
67508;SDS011;54354;44.724;11.284;2023-09-08T04:10:03;17.77;;;13.45;;
67508;SDS011;54354;44.724;11.284;2023-09-08T04:12:29;15.05;;;13.40;;
67508;SDS011;54354;44.724;11.284;2023-09-08T04:14:54;16.42;;;13.30;;
67508;SDS011;54354;44.724;11.284;2023-09-08T04:17:20;17.60;;;13.30;;
67508;SDS011;54354;44.724;11.284;2023-09-08T04:19:46;17.27;;;12.70;;
67508;SDS011;54354;44.724;11.284;2023-09-08T04:22:11;17.00;;;13.00;;
67508;SDS011;54354;44.724;11.284;2023-09-08T04:24:37;15.73;;;12.98;;
67508;SDS011;54354;44.724;11.284;2023-09-08T04:27:03;18.00;;;13.00;;
67508;SDS011;54354;44.724;11.284;2023-09-08T04:29:29;19.05;;;13.30;;
67508;SDS011;54354;44.724;11.284;2023-09-08T04:31:55;15.20;;;12.20;;
67508;SDS011;54354;44.724;11.284;2023-09-08T04:34:21;16.55;;;12.32;;
67508;SDS011;54354;44.724;11.284;2023-09-08T04:36:46;17.75;;;12.43;;
67508;SDS011;54354;44.724;11.284;2023-09-08T04:39:12;17.63;;;12.15;;
67508;SDS011;54354;44.724;11.284;2023-09-08T04:41:38;14.90;;;12.43;;
67508;SDS011;54354;44.724;11.284;2023-09-08T04:44:04;20.40;;;13.00;;
67508;SDS011;54354;44.724;11.284;2023-09-08T04:46:30;17.95;;;12.77;;
67508;SDS011;54354;44.724;11.284;2023-09-08T04:48:56;18.58;;;13.32;;
67508;SDS011;54354;44.724;11.284;2023-09-08T04:51:22;17.48;;;12.85;;
67508;SDS011;54354;44.724;11.284;2023-09-08T04:53:48;17.20;;;13.18;;
67508;SDS011;54354;44.724;11.284;2023-09-08T04:56:14;14.57;;;12.73;;
67508;SDS011;54354;44.724;11.284;2023-09-08T04:58:41;15.32;;;12.63;;
67508;SDS011;54354;44.724;11.284;2023-09-08T05:01:06;15.35;;;12.90;;
67508;SDS011;54354;44.724;11.284;2023-09-08T05:03:32;15.85;;;13.05;;
67508;SDS011;54354;44.724;11.284;2023-09-08T05:05:59;15.63;;;13.50;;
67508;SDS011;54354;44.724;11.284;2023-09-08T05:08:26;21.23;;;14.55;;
67508;SDS011;54354;44.724;11.284;2023-09-08T05:10:53;21.00;;;14.07;;
67508;SDS011;54354;44.724;11.284;2023-09-08T05:13:18;16.83;;;14.45;;
67508;SDS011;54354;44.724;11.284;2023-09-08T05:15:44;21.52;;;14.85;;
67508;SDS011;54354;44.724;11.284;2023-09-08T05:18:14;21.63;;;15.00;;
67508;SDS011;54354;44.724;11.284;2023-09-08T05:20:39;18.92;;;13.75;;
67508;SDS011;54354;44.724;11.284;2023-09-08T05:23:05;17.70;;;14.60;;
67508;SDS011;54354;44.724;11.284;2023-09-08T05:25:30;18.02;;;14.60;;
67508;SDS011;54354;44.724;11.284;2023-09-08T05:27:56;21.45;;;14.52;;
67508;SDS011;54354;44.724;11.284;2023-09-08T05:30:22;18.48;;;13.75;;
67508;SDS011;54354;44.724;11.284;2023-09-08T05:32:48;18.67;;;13.65;;
67508;SDS011;54354;44.724;11.284;2023-09-08T05:35:14;16.15;;;13.50;;
67508;SDS011;54354;44.724;11.284;2023-09-08T05:37:40;19.33;;;13.60;;
67508;SDS011;54354;44.724;11.284;2023-09-08T05:40:06;15.88;;;13.90;;
67508;SDS011;54354;44.724;11.284;2023-09-08T05:42:32;20.02;;;14.38;;
67508;SDS011;54354;44.724;11.284;2023-09-08T05:44:57;15.73;;;14.07;;
67508;SDS011;54354;44.724;11.284;2023-09-08T05:47:23;18.77;;;14.18;;
67508;SDS011;54354;44.724;11.284;2023-09-08T05:49:49;19.08;;;14.30;;
67508;SDS011;54354;44.724;11.284;2023-09-08T05:52:15;16.55;;;13.85;;
67508;SDS011;54354;44.724;11.284;2023-09-08T05:54:43;17.95;;;13.45;;
67508;SDS011;54354;44.724;11.284;2023-09-08T05:57:10;17.35;;;13.43;;
67508;SDS011;54354;44.724;11.284;2023-09-08T05:59:35;17.80;;;13.55;;
67508;SDS011;54354;44.724;11.284;2023-09-08T06:02:01;15.23;;;13.60;;
67508;SDS011;54354;44.724;11.284;2023-09-08T06:04:27;24.15;;;13.57;;
67508;SDS011;54354;44.724;11.284;2023-09-08T06:06:52;20.85;;;13.70;;
67508;SDS011;54354;44.724;11.284;2023-09-08T06:09:19;15.77;;;12.65;;
67508;SDS011;54354;44.724;11.284;2023-09-08T06:11:45;18.02;;;12.35;;
67508;SDS011;54354;44.724;11.284;2023-09-08T06:14:13;17.02;;;13.32;;
67508;SDS011;54354;44.724;11.284;2023-09-08T06:16:40;19.48;;;13.48;;
67508;SDS011;54354;44.724;11.284;2023-09-08T06:19:07;19.33;;;12.60;;
67508;SDS011;54354;44.724;11.284;2023-09-08T06:21:33;14.63;;;13.07;;
67508;SDS011;54354;44.724;11.284;2023-09-08T06:23:59;16.55;;;12.80;;
67508;SDS011;54354;44.724;11.284;2023-09-08T06:26:25;18.42;;;12.80;;
67508;SDS011;54354;44.724;11.284;2023-09-08T06:28:51;17.55;;;12.15;;
67508;SDS011;54354;44.724;11.284;2023-09-08T06:31:17;13.90;;;12.07;;
67508;SDS011;54354;44.724;11.284;2023-09-08T06:33:44;18.58;;;11.70;;
67508;SDS011;54354;44.724;11.284;2023-09-08T06:36:09;16.10;;;11.80;;
67508;SDS011;54354;44.724;11.284;2023-09-08T06:38:35;15.25;;;11.13;;
67508;SDS011;54354;44.724;11.284;2023-09-08T06:41:01;14.27;;;11.38;;
67508;SDS011;54354;44.724;11.284;2023-09-08T06:43:33;20.42;;;11.45;;
67508;SDS011;54354;44.724;11.284;2023-09-08T06:46:04;16.95;;;11.02;;
67508;SDS011;54354;44.724;11.284;2023-09-08T06:48:31;19.17;;;11.57;;
67508;SDS011;54354;44.724;11.284;2023-09-08T06:50:56;17.38;;;10.73;;
67508;SDS011;54354;44.724;11.284;2023-09-08T06:53:23;22.88;;;10.82;;
67508;SDS011;54354;44.724;11.284;2023-09-08T06:55:49;16.20;;;11.00;;
67508;SDS011;54354;44.724;11.284;2023-09-08T06:58:14;18.27;;;9.90;;
67508;SDS011;54354;44.724;11.284;2023-09-08T07:00:41;12.52;;;10.70;;
67508;SDS011;54354;44.724;11.284;2023-09-08T07:03:07;16.30;;;9.90;;
67508;SDS011;54354;44.724;11.284;2023-09-08T07:05:39;18.38;;;9.77;;
67508;SDS011;54354;44.724;11.284;2023-09-08T07:08:04;18.77;;;9.57;;
67508;SDS011;54354;44.724;11.284;2023-09-08T07:10:31;11.57;;;9.27;;
67508;SDS011;54354;44.724;11.284;2023-09-08T07:12:57;11.88;;;9.30;;
67508;SDS011;54354;44.724;11.284;2023-09-08T07:15:23;17.27;;;9.43;;
67508;SDS011;54354;44.724;11.284;2023-09-08T07:17:49;11.95;;;8.32;;
67508;SDS011;54354;44.724;11.284;2023-09-08T07:20:14;13.68;;;8.32;;
67508;SDS011;54354;44.724;11.284;2023-09-08T07:22:40;16.17;;;9.18;;
67508;SDS011;54354;44.724;11.284;2023-09-08T07:25:07;10.98;;;8.05;;
67508;SDS011;54354;44.724;11.284;2023-09-08T07:27:35;12.63;;;7.70;;
67508;SDS011;54354;44.724;11.284;2023-09-08T07:30:01;18.30;;;8.50;;
67508;SDS011;54354;44.724;11.284;2023-09-08T07:32:27;11.27;;;7.45;;
67508;SDS011;54354;44.724;11.284;2023-09-08T07:34:53;10.88;;;7.50;;
67508;SDS011;54354;44.724;11.284;2023-09-08T07:37:21;14.20;;;7.35;;
67508;SDS011;54354;44.724;11.284;2023-09-08T07:39:48;10.13;;;6.75;;
67508;SDS011;54354;44.724;11.284;2023-09-08T07:42:14;16.15;;;6.80;;
67508;SDS011;54354;44.724;11.284;2023-09-08T07:44:40;7.53;;;6.65;;
67508;SDS011;54354;44.724;11.284;2023-09-08T07:47:17;16.77;;;6.88;;
67508;SDS011;54354;44.724;11.284;2023-09-08T07:49:44;10.40;;;6.32;;
67508;SDS011;54354;44.724;11.284;2023-09-08T07:52:11;12.65;;;6.10;;
67508;SDS011;54354;44.724;11.284;2023-09-08T07:54:37;10.38;;;5.68;;
67508;SDS011;54354;44.724;11.284;2023-09-08T07:57:02;16.55;;;5.75;;
67508;SDS011;54354;44.724;11.284;2023-09-08T07:59:28;10.95;;;5.05;;
67508;SDS011;54354;44.724;11.284;2023-09-08T08:01:54;9.95;;;5.97;;
67508;SDS011;54354;44.724;11.284;2023-09-08T08:04:19;7.78;;;5.40;;
67508;SDS011;54354;44.724;11.284;2023-09-08T08:06:45;10.77;;;5.53;;
67508;SDS011;54354;44.724;11.284;2023-09-08T08:09:10;9.35;;;4.90;;
67508;SDS011;54354;44.724;11.284;2023-09-08T08:11:36;6.88;;;5.00;;
67508;SDS011;54354;44.724;11.284;2023-09-08T08:14:01;7.13;;;4.72;;
67508;SDS011;54354;44.724;11.284;2023-09-08T08:16:27;6.85;;;4.60;;
67508;SDS011;54354;44.724;11.284;2023-09-08T08:18:52;9.07;;;4.30;;
67508;SDS011;54354;44.724;11.284;2023-09-08T08:21:18;9.77;;;4.30;;
67508;SDS011;54354;44.724;11.284;2023-09-08T08:23:44;7.07;;;4.10;;
67508;SDS011;54354;44.724;11.284;2023-09-08T08:26:09;4.90;;;3.90;;
67508;SDS011;54354;44.724;11.284;2023-09-08T08:28:35;7.65;;;4.20;;
67508;SDS011;54354;44.724;11.284;2023-09-08T08:31:01;10.43;;;3.90;;
67508;SDS011;54354;44.724;11.284;2023-09-08T08:33:26;8.10;;;3.70;;
67508;SDS011;54354;44.724;11.284;2023-09-08T08:35:52;9.55;;;4.03;;
67508;SDS011;54354;44.724;11.284;2023-09-08T08:38:19;5.57;;;3.80;;
67508;SDS011;54354;44.724;11.284;2023-09-08T08:40:45;7.15;;;3.45;;
67508;SDS011;54354;44.724;11.284;2023-09-08T08:43:10;7.68;;;4.30;;
67508;SDS011;54354;44.724;11.284;2023-09-08T08:45:39;8.60;;;4.10;;
67508;SDS011;54354;44.724;11.284;2023-09-08T08:48:05;7.55;;;3.70;;
67508;SDS011;54354;44.724;11.284;2023-09-08T08:50:33;7.07;;;3.90;;
67508;SDS011;54354;44.724;11.284;2023-09-08T08:53:00;9.82;;;4.07;;
67508;SDS011;54354;44.724;11.284;2023-09-08T08:55:29;7.40;;;4.20;;
67508;SDS011;54354;44.724;11.284;2023-09-08T08:57:55;5.82;;;4.10;;
67508;SDS011;54354;44.724;11.284;2023-09-08T09:00:28;9.52;;;4.30;;
67508;SDS011;54354;44.724;11.284;2023-09-08T09:02:54;4.53;;;3.60;;
67508;SDS011;54354;44.724;11.284;2023-09-08T09:05:20;6.22;;;3.88;;
67508;SDS011;54354;44.724;11.284;2023-09-08T09:07:47;6.25;;;4.03;;
67508;SDS011;54354;44.724;11.284;2023-09-08T09:10:13;7.50;;;3.80;;
67508;SDS011;54354;44.724;11.284;2023-09-08T09:12:39;11.45;;;4.57;;
67508;SDS011;54354;44.724;11.284;2023-09-08T09:15:05;6.35;;;3.63;;
67508;SDS011;54354;44.724;11.284;2023-09-08T09:17:35;8.90;;;4.20;;
67508;SDS011;54354;44.724;11.284;2023-09-08T09:22:46;6.50;;;3.78;;
67508;SDS011;54354;44.724;11.284;2023-09-08T09:25:20;8.45;;;4.03;;
67508;SDS011;54354;44.724;11.284;2023-09-08T09:27:54;7.53;;;4.00;;
67508;SDS011;54354;44.724;11.284;2023-09-08T09:30:21;7.50;;;3.47;;
67508;SDS011;54354;44.724;11.284;2023-09-08T09:32:47;11.68;;;4.03;;
67508;SDS011;54354;44.724;11.284;2023-09-08T09:35:16;6.70;;;3.67;;
67508;SDS011;54354;44.724;11.284;2023-09-08T09:37:42;7.05;;;3.67;;
67508;SDS011;54354;44.724;11.284;2023-09-08T09:40:08;4.40;;;3.65;;
67508;SDS011;54354;44.724;11.284;2023-09-08T09:42:38;5.57;;;4.45;;
67508;SDS011;54354;44.724;11.284;2023-09-08T09:47:31;7.55;;;3.95;;
67508;SDS011;54354;44.724;11.284;2023-09-08T09:49:57;5.85;;;4.15;;
67508;SDS011;54354;44.724;11.284;2023-09-08T09:55:53;8.68;;;3.78;;
67508;SDS011;54354;44.724;11.284;2023-09-08T09:58:19;8.10;;;4.30;;
67508;SDS011;54354;44.724;11.284;2023-09-08T10:00:46;14.55;;;4.32;;
67508;SDS011;54354;44.724;11.284;2023-09-08T10:03:13;8.15;;;4.20;;
67508;SDS011;54354;44.724;11.284;2023-09-08T10:05:39;4.50;;;3.80;;
67508;SDS011;54354;44.724;11.284;2023-09-08T10:08:05;4.68;;;3.38;;
67508;SDS011;54354;44.724;11.284;2023-09-08T10:10:32;7.70;;;3.88;;
67508;SDS011;54354;44.724;11.284;2023-09-08T10:13:03;4.38;;;3.88;;
67508;SDS011;54354;44.724;11.284;2023-09-08T10:15:31;6.03;;;4.00;;
67508;SDS011;54354;44.724;11.284;2023-09-08T10:17:57;8.55;;;3.80;;
67508;SDS011;54354;44.724;11.284;2023-09-08T10:20:25;5.97;;;3.80;;
67508;SDS011;54354;44.724;11.284;2023-09-08T10:23:04;7.18;;;4.05;;
67508;SDS011;54354;44.724;11.284;2023-09-08T10:25:34;11.23;;;4.22;;
67508;SDS011;54354;44.724;11.284;2023-09-08T10:28:03;8.75;;;4.35;;
67508;SDS011;54354;44.724;11.284;2023-09-08T10:30:29;5.93;;;3.45;;
67508;SDS011;54354;44.724;11.284;2023-09-08T10:32:56;4.13;;;3.72;;
67508;SDS011;54354;44.724;11.284;2023-09-08T10:35:22;11.55;;;3.78;;
67508;SDS011;54354;44.724;11.284;2023-09-08T10:37:48;8.43;;;3.95;;
67508;SDS011;54354;44.724;11.284;2023-09-08T10:40:20;5.28;;;3.60;;
67508;SDS011;54354;44.724;11.284;2023-09-08T10:42:47;5.43;;;3.60;;
67508;SDS011;54354;44.724;11.284;2023-09-08T10:45:14;7.25;;;3.80;;
67508;SDS011;54354;44.724;11.284;2023-09-08T10:50:18;7.97;;;3.65;;
67508;SDS011;54354;44.724;11.284;2023-09-08T10:52:45;8.55;;;3.47;;
67508;SDS011;54354;44.724;11.284;2023-09-08T10:55:11;4.20;;;3.80;;
67508;SDS011;54354;44.724;11.284;2023-09-08T10:57:44;9.60;;;3.83;;
67508;SDS011;54354;44.724;11.284;2023-09-08T11:00:10;6.28;;;3.40;;
67508;SDS011;54354;44.724;11.284;2023-09-08T11:02:47;10.05;;;3.78;;
67508;SDS011;54354;44.724;11.284;2023-09-08T11:05:14;5.30;;;3.38;;
67508;SDS011;54354;44.724;11.284;2023-09-08T11:07:44;5.20;;;3.78;;
67508;SDS011;54354;44.724;11.284;2023-09-08T11:12:37;12.55;;;3.83;;
67508;SDS011;54354;44.724;11.284;2023-09-08T11:15:03;8.13;;;3.38;;
67508;SDS011;54354;44.724;11.284;2023-09-08T11:17:31;9.48;;;3.60;;
67508;SDS011;54354;44.724;11.284;2023-09-08T11:19:59;6.25;;;3.22;;
67508;SDS011;54354;44.724;11.284;2023-09-08T11:22:25;7.20;;;3.17;;
67508;SDS011;54354;44.724;11.284;2023-09-08T11:24:52;7.68;;;3.40;;
67508;SDS011;54354;44.724;11.284;2023-09-08T11:27:25;6.80;;;3.38;;
67508;SDS011;54354;44.724;11.284;2023-09-08T11:29:52;4.43;;;3.25;;
67508;SDS011;54354;44.724;11.284;2023-09-08T11:32:18;6.70;;;3.40;;
67508;SDS011;54354;44.724;11.284;2023-09-08T11:34:44;9.50;;;3.22;;
67508;SDS011;54354;44.724;11.284;2023-09-08T11:37:13;3.97;;;3.55;;
67508;SDS011;54354;44.724;11.284;2023-09-08T11:39:41;5.35;;;3.35;;
67508;SDS011;54354;44.724;11.284;2023-09-08T11:42:11;6.28;;;3.15;;
67508;SDS011;54354;44.724;11.284;2023-09-08T11:44:38;20.10;;;4.10;;
67508;SDS011;54354;44.724;11.284;2023-09-08T11:47:08;7.18;;;3.40;;
67508;SDS011;54354;44.724;11.284;2023-09-08T11:49:36;48.50;;;5.63;;
67508;SDS011;54354;44.724;11.284;2023-09-08T11:52:03;43.55;;;5.50;;
67508;SDS011;54354;44.724;11.284;2023-09-08T11:54:34;17.20;;;3.88;;
67508;SDS011;54354;44.724;11.284;2023-09-08T11:57:02;11.77;;;3.88;;
67508;SDS011;54354;44.724;11.284;2023-09-08T11:59:30;21.30;;;4.40;;
67508;SDS011;54354;44.724;11.284;2023-09-08T12:01:58;51.83;;;6.10;;
67508;SDS011;54354;44.724;11.284;2023-09-08T12:04:26;30.63;;;5.93;;
67508;SDS011;54354;44.724;11.284;2023-09-08T12:06:54;37.50;;;5.70;;
67508;SDS011;54354;44.724;11.284;2023-09-08T12:09:23;38.33;;;6.25;;
67508;SDS011;54354;44.724;11.284;2023-09-08T12:11:49;17.13;;;4.25;;
67508;SDS011;54354;44.724;11.284;2023-09-08T12:14:15;8.60;;;3.75;;
67508;SDS011;54354;44.724;11.284;2023-09-08T12:16:41;9.13;;;3.75;;
67508;SDS011;54354;44.724;11.284;2023-09-08T12:19:11;5.47;;;3.63;;
67508;SDS011;54354;44.724;11.284;2023-09-08T12:21:59;5.90;;;3.65;;
67508;SDS011;54354;44.724;11.284;2023-09-08T12:27:19;4.57;;;3.78;;
67508;SDS011;54354;44.724;11.284;2023-09-08T12:29:52;7.45;;;3.45;;
67508;SDS011;54354;44.724;11.284;2023-09-08T12:32:24;6.32;;;3.47;;
67508;SDS011;54354;44.724;11.284;2023-09-08T12:34:54;5.03;;;3.45;;
67508;SDS011;54354;44.724;11.284;2023-09-08T12:37:23;6.50;;;3.58;;
67508;SDS011;54354;44.724;11.284;2023-09-08T12:39:50;9.18;;;3.58;;
67508;SDS011;54354;44.724;11.284;2023-09-08T12:42:17;8.35;;;3.60;;
67508;SDS011;54354;44.724;11.284;2023-09-08T12:44:44;9.57;;;4.05;;
67508;SDS011;54354;44.724;11.284;2023-09-08T12:47:11;6.82;;;3.85;;
67508;SDS011;54354;44.724;11.284;2023-09-08T12:49:41;11.23;;;3.60;;
67508;SDS011;54354;44.724;11.284;2023-09-08T12:52:07;5.90;;;3.88;;
67508;SDS011;54354;44.724;11.284;2023-09-08T12:54:34;9.65;;;4.10;;
67508;SDS011;54354;44.724;11.284;2023-09-08T12:57:01;4.72;;;3.42;;
67508;SDS011;54354;44.724;11.284;2023-09-08T12:59:28;11.73;;;4.13;;
67508;SDS011;54354;44.724;11.284;2023-09-08T13:01:54;15.05;;;3.92;;
67508;SDS011;54354;44.724;11.284;2023-09-08T13:04:20;5.72;;;4.18;;
67508;SDS011;54354;44.724;11.284;2023-09-08T13:06:47;7.22;;;3.65;;
67508;SDS011;54354;44.724;11.284;2023-09-08T13:09:15;7.47;;;4.32;;
67508;SDS011;54354;44.724;11.284;2023-09-08T13:11:42;7.78;;;3.97;;
67508;SDS011;54354;44.724;11.284;2023-09-08T13:14:09;7.32;;;4.88;;
67508;SDS011;54354;44.724;11.284;2023-09-08T13:16:39;9.20;;;3.78;;
67508;SDS011;54354;44.724;11.284;2023-09-08T13:19:11;6.57;;;3.40;;
67508;SDS011;54354;44.724;11.284;2023-09-08T13:21:38;8.02;;;3.50;;
67508;SDS011;54354;44.724;11.284;2023-09-08T13:24:06;9.57;;;3.60;;
67508;SDS011;54354;44.724;11.284;2023-09-08T13:26:33;6.60;;;3.70;;
67508;SDS011;54354;44.724;11.284;2023-09-08T13:29:00;6.90;;;4.00;;
67508;SDS011;54354;44.724;11.284;2023-09-08T13:31:26;4.50;;;3.85;;
67508;SDS011;54354;44.724;11.284;2023-09-08T13:33:51;6.53;;;3.53;;
67508;SDS011;54354;44.724;11.284;2023-09-08T13:36:17;6.38;;;3.92;;
67508;SDS011;54354;44.724;11.284;2023-09-08T13:38:43;7.38;;;3.58;;
67508;SDS011;54354;44.724;11.284;2023-09-08T13:41:10;7.13;;;3.38;;
67508;SDS011;54354;44.724;11.284;2023-09-08T13:43:36;7.13;;;3.70;;
67508;SDS011;54354;44.724;11.284;2023-09-08T13:46:03;6.03;;;3.63;;
67508;SDS011;54354;44.724;11.284;2023-09-08T13:48:39;4.68;;;3.17;;
67508;SDS011;54354;44.724;11.284;2023-09-08T13:51:09;8.35;;;3.70;;
67508;SDS011;54354;44.724;11.284;2023-09-08T13:53:35;9.43;;;3.90;;
67508;SDS011;54354;44.724;11.284;2023-09-08T13:56:01;10.63;;;3.95;;
67508;SDS011;54354;44.724;11.284;2023-09-08T13:58:30;6.10;;;3.33;;
67508;SDS011;54354;44.724;11.284;2023-09-08T14:01:01;10.40;;;3.65;;
67508;SDS011;54354;44.724;11.284;2023-09-08T14:03:37;8.13;;;3.72;;
67508;SDS011;54354;44.724;11.284;2023-09-08T14:06:03;4.80;;;3.72;;
67508;SDS011;54354;44.724;11.284;2023-09-08T14:08:29;5.88;;;3.50;;
67508;SDS011;54354;44.724;11.284;2023-09-08T14:10:56;5.18;;;3.75;;
67508;SDS011;54354;44.724;11.284;2023-09-08T14:13:23;8.32;;;4.18;;
67508;SDS011;54354;44.724;11.284;2023-09-08T14:15:49;6.90;;;3.58;;
67508;SDS011;54354;44.724;11.284;2023-09-08T14:18:15;6.50;;;3.10;;
67508;SDS011;54354;44.724;11.284;2023-09-08T14:20:42;6.05;;;3.90;;
67508;SDS011;54354;44.724;11.284;2023-09-08T14:23:09;5.05;;;3.40;;
67508;SDS011;54354;44.724;11.284;2023-09-08T14:25:35;12.57;;;3.83;;
67508;SDS011;54354;44.724;11.284;2023-09-08T14:28:00;7.05;;;3.80;;
67508;SDS011;54354;44.724;11.284;2023-09-08T14:30:30;4.87;;;3.60;;
67508;SDS011;54354;44.724;11.284;2023-09-08T14:32:56;4.32;;;3.60;;
67508;SDS011;54354;44.724;11.284;2023-09-08T14:35:21;8.80;;;3.30;;
67508;SDS011;54354;44.724;11.284;2023-09-08T14:37:47;8.85;;;4.00;;
67508;SDS011;54354;44.724;11.284;2023-09-08T14:40:14;5.28;;;3.53;;